createdAt,value
2018-06-16T00:03:47.405Z,9.13
2018-06-16T00:06:15.975Z,8.90
2018-06-16T00:08:45.349Z,9.47
2018-06-16T00:11:13.923Z,10.13
2018-06-16T00:13:42.455Z,9.93
2018-06-16T00:16:10.974Z,8.90
2018-06-16T00:18:40.253Z,9.00
2018-06-16T00:21:09.107Z,9.80
2018-06-16T00:23:37.615Z,8.87
2018-06-16T00:26:06.408Z,9.83
2018-06-16T00:28:35.745Z,10.00
2018-06-16T00:31:04.318Z,10.20
2018-06-16T00:33:32.889Z,10.00
2018-06-16T00:36:02.086Z,10.17
2018-06-16T00:38:31.650Z,10.20
2018-06-16T00:41:00.198Z,9.47
2018-06-16T00:43:28.713Z,9.63
2018-06-16T00:45:57.394Z,9.87
2018-06-16T00:48:25.953Z,10.33
2018-06-16T00:50:55.264Z,10.17
2018-06-16T00:53:23.760Z,10.33
2018-06-16T00:55:52.303Z,10.13
2018-06-16T00:58:20.843Z,9.33
2018-06-16T01:00:49.915Z,10.20
2018-06-16T01:03:18.429Z,10.03
2018-06-16T01:05:46.922Z,9.87
2018-06-16T01:08:15.433Z,10.07
2018-06-16T01:10:44.089Z,9.57
2018-06-16T01:13:12.872Z,9.80
2018-06-16T01:15:41.526Z,10.60
2018-06-16T01:18:10.173Z,11.20
2018-06-16T01:20:38.705Z,10.93
2018-06-16T01:23:07.241Z,9.97
2018-06-16T01:25:35.881Z,10.03
2018-06-16T01:28:04.413Z,10.27
2018-06-16T01:30:33.059Z,11.13
2018-06-16T01:33:01.807Z,10.50
2018-06-16T01:35:30.387Z,9.83
2018-06-16T01:37:59.007Z,9.93
2018-06-16T01:40:27.572Z,11.37
2018-06-16T01:42:56.256Z,10.67
2018-06-16T01:45:24.764Z,10.17
2018-06-16T01:47:53.352Z,10.57
2018-06-16T01:50:21.903Z,10.53
2018-06-16T01:52:50.409Z,11.23
2018-06-16T01:55:18.945Z,11.70
2018-06-16T01:57:47.452Z,11.13
2018-06-16T02:00:15.973Z,10.33
2018-06-16T02:02:44.654Z,10.00
2018-06-16T02:05:13.311Z,10.17
2018-06-16T02:07:41.875Z,10.80
2018-06-16T02:10:10.417Z,12.27
2018-06-16T02:12:38.920Z,11.20
2018-06-16T02:15:07.868Z,10.80
2018-06-16T02:17:36.408Z,11.57
2018-06-16T02:20:05.017Z,11.33
2018-06-16T02:22:33.645Z,11.23
2018-06-16T02:25:02.174Z,10.70
2018-06-16T02:27:30.692Z,10.37
2018-06-16T02:29:59.182Z,9.67
2018-06-16T02:32:27.718Z,11.20
2018-06-16T02:34:56.206Z,8.87
2018-06-16T02:37:24.725Z,9.17
2018-06-16T02:39:53.465Z,8.97
2018-06-16T02:42:21.970Z,9.77
2018-06-16T02:44:50.470Z,9.80
2018-06-16T02:47:18.989Z,9.73
2018-06-16T02:49:47.511Z,10.17
2018-06-16T02:52:16.047Z,10.83
2018-06-16T02:54:44.569Z,9.90
2018-06-16T02:57:13.074Z,10.23
2018-06-16T02:59:41.582Z,9.80
2018-06-16T03:02:10.159Z,9.53
2018-06-16T03:04:38.661Z,11.07
2018-06-16T03:07:07.175Z,9.60
2018-06-16T03:09:35.703Z,10.43
2018-06-16T03:12:04.211Z,10.50
2018-06-16T03:14:32.781Z,11.23
2018-06-16T03:17:01.301Z,10.53
2018-06-16T03:19:29.848Z,10.47
2018-06-16T03:21:58.337Z,11.23
2018-06-16T03:24:26.964Z,10.87
2018-06-16T03:26:55.446Z,10.77
2018-06-16T03:29:24.082Z,10.53
2018-06-16T03:31:52.606Z,10.17
2018-06-16T03:34:21.117Z,10.73
2018-06-16T03:36:49.678Z,10.67
2018-06-16T03:39:18.197Z,11.83
2018-06-16T03:41:46.702Z,11.47
2018-06-16T03:44:15.215Z,9.07
2018-06-16T03:46:43.736Z,9.20
2018-06-16T03:49:12.250Z,9.10
2018-06-16T03:51:40.785Z,9.93
2018-06-16T03:54:09.333Z,10.00
2018-06-16T03:56:37.833Z,10.23
2018-06-16T03:59:06.477Z,9.97
2018-06-16T04:01:34.993Z,10.90
2018-06-16T04:04:03.585Z,10.40
2018-06-16T04:06:32.077Z,9.90
2018-06-16T04:09:00.639Z,9.67
2018-06-16T04:11:29.230Z,8.73
2018-06-16T04:13:57.737Z,10.13
2018-06-16T04:16:26.266Z,9.83
2018-06-16T04:18:54.964Z,10.33
2018-06-16T04:21:23.469Z,10.27
2018-06-16T04:23:52.006Z,9.73
2018-06-16T04:26:20.604Z,9.47
2018-06-16T04:28:49.178Z,9.43
2018-06-16T04:31:17.764Z,9.63
2018-06-16T04:33:46.375Z,10.03
2018-06-16T04:36:14.904Z,9.70
2018-06-16T04:38:43.401Z,9.93
2018-06-16T04:41:13.429Z,9.90
2018-06-16T04:43:43.848Z,10.20
2018-06-16T04:46:12.321Z,9.90
2018-06-16T04:48:40.861Z,10.50
2018-06-16T04:51:09.357Z,9.63
2018-06-16T04:53:37.990Z,9.67
2018-06-16T04:56:06.492Z,10.03
2018-06-16T04:58:34.976Z,8.97
2018-06-16T05:01:03.769Z,9.17
2018-06-16T05:03:32.293Z,8.90
2018-06-16T05:06:00.841Z,9.30
2018-06-16T05:08:29.368Z,8.53
2018-06-16T05:10:57.847Z,9.43
2018-06-16T05:13:26.361Z,8.40
2018-06-16T05:15:55.242Z,8.50
2018-06-16T05:18:26.709Z,8.70
2018-06-16T05:20:55.194Z,8.97
2018-06-16T05:23:24.701Z,8.43
2018-06-16T05:25:53.298Z,9.10
2018-06-16T05:28:22.058Z,7.80
2018-06-16T05:30:50.601Z,8.20
2018-06-16T05:33:19.104Z,9.80
2018-06-16T05:35:47.605Z,9.23
2018-06-16T05:38:16.113Z,7.40
2018-06-16T05:40:44.604Z,7.97
2018-06-16T05:43:13.109Z,8.97
2018-06-16T05:45:42.007Z,8.57
2018-06-16T05:48:10.537Z,8.30
2018-06-16T05:50:39.037Z,8.40
2018-06-16T05:53:07.825Z,9.20
2018-06-16T05:55:36.346Z,7.90
2018-06-16T05:58:04.861Z,8.60
2018-06-16T06:00:33.419Z,8.87
2018-06-16T06:03:01.898Z,9.00
2018-06-16T06:05:30.399Z,8.50
2018-06-16T06:07:58.944Z,8.63
2018-06-16T06:10:27.533Z,8.83
2018-06-16T06:12:56.059Z,8.67
2018-06-16T06:15:25.229Z,8.57
2018-06-16T06:17:55.334Z,9.43
2018-06-16T06:20:23.877Z,9.40
2018-06-16T06:23:09.975Z,9.27
2018-06-16T06:25:38.475Z,8.97
2018-06-16T06:28:07.013Z,9.47
2018-06-16T06:30:35.810Z,8.27
2018-06-16T06:33:04.320Z,8.50
2018-06-16T06:35:32.852Z,8.10
2018-06-16T06:38:01.018Z,9.30
2018-06-16T06:40:29.634Z,8.90
2018-06-16T06:42:58.149Z,9.43
2018-06-16T06:45:26.938Z,10.23
2018-06-16T06:47:55.418Z,8.63
2018-06-16T06:50:24.122Z,9.63
2018-06-16T06:52:52.938Z,9.73
2018-06-16T06:55:21.483Z,9.23
2018-06-16T06:57:50.072Z,9.03
2018-06-16T07:00:19.066Z,9.20
2018-06-16T07:02:47.557Z,8.37
2018-06-16T07:05:18.109Z,8.83
2018-06-16T07:07:46.599Z,9.30
2018-06-16T07:10:15.119Z,8.57
2018-06-16T07:12:43.601Z,9.13
2018-06-16T07:15:13.498Z,8.43
2018-06-16T07:17:42.013Z,8.60
2018-06-16T07:20:10.546Z,8.97
2018-06-16T07:22:39.131Z,9.17
2018-06-16T07:25:07.645Z,8.63
2018-06-16T07:27:37.722Z,8.97
2018-06-16T07:30:06.346Z,8.93
2018-06-16T07:32:34.890Z,10.30
2018-06-16T07:35:03.508Z,8.93
2018-06-16T07:37:32.004Z,9.00
2018-06-16T07:40:00.523Z,8.90
2018-06-16T07:42:28.733Z,9.23
2018-06-16T07:44:57.279Z,9.13
2018-06-16T07:47:26.032Z,8.83
2018-06-16T07:49:54.608Z,9.00
2018-06-16T07:52:23.238Z,8.70
2018-06-16T07:54:51.760Z,8.87
2018-06-16T07:57:20.285Z,8.47
2018-06-16T07:59:48.864Z,9.60
2018-06-16T08:02:17.418Z,8.73
2018-06-16T08:04:45.919Z,8.10
2018-06-16T08:07:14.425Z,9.03
2018-06-16T08:09:42.925Z,7.90
2018-06-16T08:12:11.409Z,9.07
2018-06-16T08:14:39.925Z,8.87
2018-06-16T08:17:08.413Z,8.43
2018-06-16T08:19:36.953Z,8.63
2018-06-16T08:22:05.834Z,8.83
2018-06-16T08:24:34.380Z,8.10
2018-06-16T08:27:03.206Z,8.13
2018-06-16T08:29:31.802Z,7.47
2018-06-16T08:32:00.392Z,7.40
2018-06-16T08:34:30.052Z,7.63
2018-06-16T08:36:58.544Z,7.70
2018-06-16T08:39:27.137Z,8.33
2018-06-16T08:41:55.711Z,7.97
2018-06-16T08:44:24.317Z,7.27
2018-06-16T08:46:52.952Z,6.33
2018-06-16T08:49:21.885Z,7.87
2018-06-16T08:51:50.455Z,7.50
2018-06-16T08:54:18.929Z,7.67
2018-06-16T08:56:47.488Z,6.20
2018-06-16T08:59:15.955Z,6.33
2018-06-16T09:01:44.399Z,6.50
2018-06-16T09:04:12.835Z,6.17
2018-06-16T09:06:41.267Z,5.70
2018-06-16T09:09:10.187Z,6.37
2018-06-16T09:11:38.959Z,5.73
2018-06-16T09:14:07.444Z,5.70
2018-06-16T09:16:35.937Z,5.97
2018-06-16T09:19:04.707Z,6.37
2018-06-16T09:21:33.180Z,6.50
2018-06-16T09:24:01.656Z,6.67
2018-06-16T09:26:30.131Z,6.20
2018-06-16T09:28:58.568Z,7.20
2018-06-16T09:31:27.055Z,6.67
2018-06-16T09:33:55.495Z,7.40
2018-06-16T09:36:23.960Z,7.63
2018-06-16T09:38:52.405Z,8.17
2018-06-16T09:41:20.847Z,7.60
2018-06-16T09:43:49.319Z,7.80
2018-06-16T09:46:17.781Z,8.00
2018-06-16T09:48:46.316Z,8.50
2018-06-16T09:51:14.746Z,8.73
2018-06-16T09:53:43.208Z,8.80
2018-06-16T09:56:11.649Z,8.03
2018-06-16T09:58:40.115Z,8.83
2018-06-16T10:01:08.528Z,7.90
2018-06-16T10:03:36.963Z,8.27
2018-06-16T10:06:05.487Z,6.70
2018-06-16T10:08:33.907Z,7.70
2018-06-16T10:11:02.378Z,8.13
2018-06-16T10:13:30.831Z,8.00
2018-06-16T10:15:59.290Z,7.70
2018-06-16T10:18:27.729Z,7.90
2018-06-16T10:20:56.186Z,7.87
2018-06-16T10:23:24.643Z,9.07
2018-06-16T10:25:53.116Z,7.57
2018-06-16T10:28:21.571Z,8.73
2018-06-16T10:30:50.018Z,8.50
2018-06-16T10:33:18.481Z,7.93
2018-06-16T10:35:46.920Z,7.43
2018-06-16T10:38:15.414Z,7.80
2018-06-16T10:40:43.875Z,6.93
2018-06-16T10:43:12.295Z,7.20
2018-06-16T10:45:40.767Z,8.20
2018-06-16T10:48:09.219Z,8.27
2018-06-16T10:50:37.681Z,8.80
2018-06-16T10:53:06.126Z,7.17
2018-06-16T10:55:34.571Z,7.03
2018-06-16T10:58:03.114Z,7.80
2018-06-16T11:00:31.588Z,7.60
2018-06-16T11:03:00.065Z,8.00
2018-06-16T11:05:28.506Z,7.80
2018-06-16T11:07:56.959Z,7.80
2018-06-16T11:10:25.404Z,8.13
2018-06-16T11:12:53.883Z,7.90
2018-06-16T11:15:22.347Z,7.93
2018-06-16T11:17:50.768Z,7.90
2018-06-16T11:20:19.283Z,9.40
2018-06-16T11:22:47.720Z,8.20
2018-06-16T11:25:16.183Z,8.17
2018-06-16T11:27:44.667Z,7.30
2018-06-16T11:30:13.088Z,8.40
2018-06-16T11:32:41.573Z,7.77
2018-06-16T11:35:10.132Z,8.40
2018-06-16T11:37:38.579Z,7.27
2018-06-16T11:40:07.074Z,7.53
2018-06-16T11:42:35.519Z,6.60
2018-06-16T11:45:04.004Z,6.60
2018-06-16T11:47:32.429Z,5.97
2018-06-16T11:50:00.885Z,6.13
2018-06-16T11:52:29.316Z,5.80
2018-06-16T11:54:57.779Z,6.60
2018-06-16T11:57:26.215Z,5.40
2018-06-16T11:59:54.694Z,6.80
2018-06-16T12:02:23.128Z,5.67
2018-06-16T12:04:51.556Z,5.83
2018-06-16T12:07:20.245Z,5.97
2018-06-16T12:09:48.711Z,6.40
2018-06-16T12:12:17.175Z,6.13
2018-06-16T12:14:45.631Z,6.37
2018-06-16T12:17:14.093Z,6.07
2018-06-16T12:19:42.536Z,6.20
2018-06-16T12:22:10.992Z,6.20
2018-06-16T12:24:39.470Z,5.83
2018-06-16T12:27:07.923Z,5.73
2018-06-16T12:29:36.385Z,5.33
2018-06-16T12:32:04.839Z,5.17
2018-06-16T12:34:33.304Z,5.60
2018-06-16T12:37:01.751Z,5.07
2018-06-16T12:39:30.193Z,5.20
2018-06-16T12:41:58.647Z,4.87
2018-06-16T12:44:27.257Z,4.87
2018-06-16T12:46:55.984Z,5.30
2018-06-16T12:49:24.433Z,6.03
2018-06-16T12:51:52.910Z,5.40
2018-06-16T12:54:21.407Z,5.40
2018-06-16T12:56:49.897Z,4.73
2018-06-16T12:59:18.319Z,4.63
2018-06-16T13:01:46.759Z,4.97
2018-06-16T13:04:15.251Z,4.80
2018-06-16T13:06:43.740Z,4.80
2018-06-16T13:09:12.208Z,4.50
2018-06-16T13:11:40.679Z,4.60
2018-06-16T13:14:09.127Z,4.50
2018-06-16T13:16:37.652Z,4.50
2018-06-16T13:19:06.079Z,5.13
2018-06-16T13:21:34.539Z,4.40
2018-06-16T13:24:02.975Z,4.50
2018-06-16T13:26:31.455Z,4.53
2018-06-16T13:28:59.894Z,4.17
2018-06-16T13:31:28.349Z,5.03
2018-06-16T13:33:56.827Z,4.50
2018-06-16T13:36:25.289Z,3.87
2018-06-16T13:38:53.739Z,4.03
2018-06-16T13:41:22.163Z,3.80
2018-06-16T13:43:50.631Z,4.27
2018-06-16T13:46:19.063Z,3.80
2018-06-16T13:48:47.495Z,4.13
2018-06-16T13:51:15.955Z,4.70
2018-06-16T13:53:44.375Z,4.83
2018-06-16T13:56:12.830Z,4.00
2018-06-16T13:58:41.323Z,3.83
2018-06-16T14:01:09.794Z,4.20
2018-06-16T14:03:38.251Z,4.03
2018-06-16T14:06:06.703Z,4.30
2018-06-16T14:08:35.143Z,4.40
2018-06-16T14:11:03.588Z,4.10
2018-06-16T14:13:33.209Z,3.70
2018-06-16T14:16:01.779Z,3.80
2018-06-16T14:18:30.280Z,4.10
2018-06-16T14:20:58.764Z,4.10
2018-06-16T14:23:27.321Z,4.70
2018-06-16T14:25:56.909Z,4.77
2018-06-16T14:28:25.451Z,4.33
2018-06-16T14:31:17.928Z,4.20
2018-06-16T14:36:51.371Z,4.77
2018-06-16T14:39:23.504Z,4.70
2018-06-16T14:42:19.429Z,4.27
2018-06-16T14:44:49.550Z,4.53
2018-06-16T14:50:41.315Z,4.47
2018-06-16T14:53:09.893Z,4.70
2018-06-16T14:55:38.440Z,4.83
2018-06-16T14:58:07.062Z,4.70
2018-06-16T15:00:35.527Z,4.67
2018-06-16T15:03:04.915Z,4.70
2018-06-16T15:05:33.486Z,4.50
2018-06-16T15:08:01.938Z,5.07
2018-06-16T15:10:30.430Z,5.50
2018-06-16T15:12:58.863Z,5.10
2018-06-16T15:15:27.316Z,5.40
2018-06-16T15:17:55.813Z,5.30
2018-06-16T15:20:24.273Z,4.80
2018-06-16T15:22:53.012Z,5.10
2018-06-16T15:25:21.457Z,5.00
2018-06-16T15:27:49.921Z,4.97
2018-06-16T15:30:18.356Z,4.27
2018-06-16T15:32:46.819Z,4.23
2018-06-16T15:35:15.327Z,4.90
2018-06-16T15:37:43.777Z,4.70
2018-06-16T15:40:12.286Z,5.23
2018-06-16T15:42:40.738Z,4.20
2018-06-16T15:45:09.250Z,4.37
2018-06-16T15:47:37.756Z,4.50
2018-06-16T15:50:06.267Z,4.70
2018-06-16T15:52:34.731Z,6.83
2018-06-16T15:55:03.283Z,5.80
2018-06-16T15:57:31.719Z,4.93
2018-06-16T16:00:00.447Z,4.10
2018-06-16T16:02:28.913Z,4.97
2018-06-16T16:04:57.364Z,5.20
2018-06-16T16:07:26.072Z,4.10
2018-06-16T16:09:54.561Z,4.47
2018-06-16T16:12:23.200Z,4.43
2018-06-16T16:14:51.659Z,4.27
2018-06-16T16:17:20.130Z,4.23
2018-06-16T16:19:48.596Z,4.60
2018-06-16T16:22:17.040Z,4.33
2018-06-16T16:24:45.522Z,4.53
2018-06-16T16:27:14.083Z,4.43
2018-06-16T16:29:42.547Z,4.37
2018-06-16T16:32:10.975Z,4.57
2018-06-16T16:34:39.455Z,4.50
2018-06-16T16:37:07.899Z,4.30
2018-06-16T16:39:36.350Z,4.30
2018-06-16T16:42:04.833Z,4.87
2018-06-16T16:44:33.275Z,4.27
2018-06-16T16:47:01.767Z,4.60
2018-06-16T16:49:30.206Z,4.27
2018-06-16T16:51:58.681Z,4.97
2018-06-16T16:54:27.208Z,4.90
2018-06-16T16:56:55.699Z,4.30
2018-06-16T16:59:24.167Z,4.87
2018-06-16T17:01:52.615Z,4.43
2018-06-16T17:04:21.179Z,4.70
2018-06-16T17:06:49.600Z,4.80
2018-06-16T17:09:18.064Z,4.13
2018-06-16T17:11:46.539Z,4.37
2018-06-16T17:14:14.971Z,5.50
2018-06-16T17:16:43.447Z,4.80
2018-06-16T17:19:11.952Z,4.07
2018-06-16T17:21:40.553Z,4.70
2018-06-16T17:24:09.015Z,4.73
2018-06-16T17:26:37.488Z,4.20
2018-06-16T17:29:05.983Z,4.20
2018-06-16T17:31:34.491Z,4.47
2018-06-16T17:34:02.972Z,4.60
2018-06-16T17:36:31.411Z,5.70
2018-06-16T17:39:00.249Z,5.50
2018-06-16T17:41:28.719Z,5.50
2018-06-16T17:43:57.202Z,3.77
2018-06-16T17:46:25.650Z,4.03
2018-06-16T17:48:54.170Z,4.10
2018-06-16T17:52:25.884Z,5.70
2018-06-16T17:54:55.283Z,4.00
2018-06-16T17:57:26.531Z,4.20
2018-06-16T17:59:55.667Z,4.17
2018-06-16T18:02:24.137Z,3.40
2018-06-16T18:04:52.633Z,3.93
2018-06-16T18:07:21.608Z,5.33
2018-06-16T18:09:50.140Z,3.93
2018-06-16T18:12:18.636Z,5.40
2018-06-16T18:14:47.070Z,3.90
2018-06-16T18:17:15.578Z,3.23
2018-06-16T18:19:44.044Z,4.20
2018-06-16T18:22:12.524Z,4.10
2018-06-16T18:24:40.960Z,3.53
2018-06-16T18:27:09.424Z,3.70
2018-06-16T18:29:37.918Z,3.80
2018-06-16T18:32:06.416Z,3.37
2018-06-16T18:34:34.876Z,4.40
2018-06-16T18:37:03.360Z,5.43
2018-06-16T18:39:32.039Z,4.90
2018-06-16T18:42:00.476Z,4.57
2018-06-16T18:44:28.947Z,4.20
2018-06-16T18:46:57.400Z,4.77
2018-06-16T18:49:25.848Z,4.40
2018-06-16T18:51:54.361Z,4.50
2018-06-16T18:54:22.816Z,4.13
2018-06-16T18:56:51.332Z,3.90
2018-06-16T18:59:19.964Z,4.43
2018-06-16T19:01:48.457Z,4.27
2018-06-16T19:04:16.978Z,4.90
2018-06-16T19:06:45.479Z,4.70
2018-06-16T19:09:14.016Z,5.43
2018-06-16T19:11:42.616Z,6.07
2018-06-16T19:14:12.245Z,6.43
2018-06-16T19:17:06.367Z,7.30
2018-06-16T19:19:36.136Z,7.33
2018-06-16T19:22:04.813Z,7.00
2018-06-16T19:24:37.451Z,8.43
2018-06-16T19:27:06.087Z,9.20
2018-06-16T19:29:34.966Z,8.23
2018-06-16T19:32:03.588Z,8.80
2018-06-16T19:34:32.205Z,7.67
2018-06-16T19:37:01.765Z,7.93
2018-06-16T19:39:31.989Z,7.63
2018-06-16T19:42:03.261Z,7.50
2018-06-16T19:47:16.286Z,6.70
2018-06-16T19:50:02.725Z,7.07
2018-06-16T19:52:31.822Z,6.20
2018-06-16T19:55:00.429Z,7.60
2018-06-16T19:57:29.015Z,6.40
2018-06-16T19:59:57.676Z,7.13
2018-06-16T20:02:28.244Z,6.10
2018-06-16T20:08:18.042Z,5.87
2018-06-16T20:14:23.533Z,6.23
2018-06-16T20:17:01.929Z,6.40
2018-06-16T20:19:30.581Z,6.03
2018-06-16T20:22:28.290Z,5.63
2018-06-16T20:32:33.133Z,5.93
2018-06-16T20:35:41.375Z,5.80
2018-06-16T20:38:10.897Z,6.10
2018-06-16T20:40:39.790Z,6.30
2018-06-16T20:43:09.482Z,6.50
2018-06-16T20:45:37.910Z,6.30
2018-06-16T20:48:07.595Z,6.00
2018-06-16T20:50:36.547Z,6.10
2018-06-16T20:53:05.178Z,6.10
2018-06-16T20:55:35.479Z,6.00
2018-06-16T20:58:04.588Z,6.17
2018-06-16T21:00:48.369Z,6.00
2018-06-16T21:03:23.656Z,6.43
2018-06-16T21:05:52.202Z,6.33
2018-06-16T21:08:21.305Z,5.73
2018-06-16T21:11:08.887Z,6.00
2018-06-16T21:13:39.789Z,6.00
2018-06-16T21:16:28.282Z,5.70
2018-06-16T21:18:58.622Z,6.20
2018-06-16T21:21:27.225Z,5.77
2018-06-16T21:23:56.117Z,6.10
2018-06-16T21:26:24.642Z,5.53
2018-06-16T21:28:53.222Z,5.40
2018-06-16T21:31:21.758Z,5.90
2018-06-16T21:33:57.613Z,5.30
2018-06-16T21:36:27.368Z,4.50
2018-06-16T21:38:55.876Z,4.60
2018-06-16T21:41:24.362Z,3.80
2018-06-16T21:43:53.277Z,3.63
2018-06-16T21:46:21.776Z,3.63
2018-06-16T21:48:50.278Z,3.40
2018-06-16T21:51:18.753Z,3.50
2018-06-16T21:53:47.778Z,3.40
2018-06-16T21:56:16.241Z,3.87
2018-06-16T21:58:45.399Z,3.00
2018-06-16T22:01:14.158Z,3.10
2018-06-16T22:03:42.630Z,3.20
2018-06-16T22:06:12.068Z,3.33
2018-06-16T22:08:40.564Z,3.37
2018-06-16T22:11:09.004Z,3.50
2018-06-16T22:13:37.443Z,3.43
2018-06-16T22:16:05.918Z,3.53
2018-06-16T22:18:34.379Z,3.57
2018-06-16T22:21:02.819Z,3.63
2018-06-16T22:23:31.274Z,3.30
2018-06-16T22:25:59.735Z,3.67
2018-06-16T22:28:28.167Z,3.43
2018-06-16T22:30:56.603Z,3.80
2018-06-16T22:33:25.063Z,4.00
2018-06-16T22:35:53.632Z,3.80
2018-06-16T22:38:22.062Z,4.17
2018-06-16T22:40:50.507Z,3.83
2018-06-16T22:43:18.963Z,4.43
2018-06-16T22:45:47.432Z,3.93
2018-06-16T22:48:15.936Z,4.00
2018-06-16T22:50:44.364Z,3.97
2018-06-16T22:53:12.805Z,4.33
2018-06-16T22:55:41.284Z,4.07
2018-06-16T22:58:09.713Z,4.30
2018-06-16T23:00:38.777Z,3.80
2018-06-16T23:03:07.911Z,4.17
2018-06-16T23:05:36.957Z,4.00
2018-06-16T23:08:05.879Z,4.30
2018-06-16T23:46:15.885Z,5.50
2018-06-16T23:48:44.575Z,5.50
2018-06-16T23:51:13.377Z,5.73
2018-06-16T23:53:42.053Z,6.20
2018-06-16T23:56:10.857Z,6.00
2018-06-16T23:58:40.037Z,6.40
